sensor_id;sensor_type;location;lat;lon;timestamp;temperature;humidity
23703;DHT22;12030;50.376;8.762;2022-07-29T00:00:12;18.00;93.70
23703;DHT22;12030;50.376;8.762;2022-07-29T00:02:37;18.10;93.40
23703;DHT22;12030;50.376;8.762;2022-07-29T00:05:04;18.20;93.20
23703;DHT22;12030;50.376;8.762;2022-07-29T00:07:30;18.20;93.00
23703;DHT22;12030;50.376;8.762;2022-07-29T00:09:56;18.30;93.00
23703;DHT22;12030;50.376;8.762;2022-07-29T00:12:23;18.30;93.00
23703;DHT22;12030;50.376;8.762;2022-07-29T00:14:50;18.30;93.00
23703;DHT22;12030;50.376;8.762;2022-07-29T00:17:15;18.30;93.30
23703;DHT22;12030;50.376;8.762;2022-07-29T00:19:41;18.30;93.40
23703;DHT22;12030;50.376;8.762;2022-07-29T00:22:07;18.20;93.10
23703;DHT22;12030;50.376;8.762;2022-07-29T00:24:32;18.30;92.20
23703;DHT22;12030;50.376;8.762;2022-07-29T00:26:58;18.50;91.80
23703;DHT22;12030;50.376;8.762;2022-07-29T00:29:24;18.70;91.60
23703;DHT22;12030;50.376;8.762;2022-07-29T00:31:50;18.80;91.50
23703;DHT22;12030;50.376;8.762;2022-07-29T00:34:15;18.90;91.10
23703;DHT22;12030;50.376;8.762;2022-07-29T00:36:59;19.00;90.90
23703;DHT22;12030;50.376;8.762;2022-07-29T00:39:25;19.10;90.80
23703;DHT22;12030;50.376;8.762;2022-07-29T00:41:51;19.20;90.20
23703;DHT22;12030;50.376;8.762;2022-07-29T00:44:16;19.30;90.00
23703;DHT22;12030;50.376;8.762;2022-07-29T00:46:42;19.40;89.50
23703;DHT22;12030;50.376;8.762;2022-07-29T00:49:07;19.50;88.70
23703;DHT22;12030;50.376;8.762;2022-07-29T00:51:35;19.70;87.60
23703;DHT22;12030;50.376;8.762;2022-07-29T00:54:02;19.80;86.30
23703;DHT22;12030;50.376;8.762;2022-07-29T00:56:30;19.90;86.50
23703;DHT22;12030;50.376;8.762;2022-07-29T00:58:56;19.80;86.20
23703;DHT22;12030;50.376;8.762;2022-07-29T01:01:22;20.00;86.20
23703;DHT22;12030;50.376;8.762;2022-07-29T01:03:48;20.20;85.60
23703;DHT22;12030;50.376;8.762;2022-07-29T01:06:15;20.20;85.10
23703;DHT22;12030;50.376;8.762;2022-07-29T01:08:42;20.20;85.00
23703;DHT22;12030;50.376;8.762;2022-07-29T01:11:07;20.20;85.60
23703;DHT22;12030;50.376;8.762;2022-07-29T01:13:33;20.10;90.90
23703;DHT22;12030;50.376;8.762;2022-07-29T01:16:07;19.80;95.20
23703;DHT22;12030;50.376;8.762;2022-07-29T01:18:39;19.50;96.20
23703;DHT22;12030;50.376;8.762;2022-07-29T01:21:11;19.10;97.90
23703;DHT22;12030;50.376;8.762;2022-07-29T01:24:02;18.80;97.30
23703;DHT22;12030;50.376;8.762;2022-07-29T01:29:17;18.40;99.90
23703;DHT22;12030;50.376;8.762;2022-07-29T01:34:39;18.10;99.90
23703;DHT22;12030;50.376;8.762;2022-07-29T01:37:20;18.00;99.90
23703;DHT22;12030;50.376;8.762;2022-07-29T01:39:49;18.00;99.90
23703;DHT22;12030;50.376;8.762;2022-07-29T01:42:33;17.90;99.90
23703;DHT22;12030;50.376;8.762;2022-07-29T01:47:32;17.70;99.90
23703;DHT22;12030;50.376;8.762;2022-07-29T01:50:00;17.60;99.90
23703;DHT22;12030;50.376;8.762;2022-07-29T01:52:35;17.40;99.90
23703;DHT22;12030;50.376;8.762;2022-07-29T01:55:12;17.20;99.90
23703;DHT22;12030;50.376;8.762;2022-07-29T01:57:39;17.00;99.90
23703;DHT22;12030;50.376;8.762;2022-07-29T02:00:06;16.90;99.90
23703;DHT22;12030;50.376;8.762;2022-07-29T02:02:33;17.00;99.90
23703;DHT22;12030;50.376;8.762;2022-07-29T02:05:02;16.80;99.90
23703;DHT22;12030;50.376;8.762;2022-07-29T02:07:29;17.00;99.90
23703;DHT22;12030;50.376;8.762;2022-07-29T02:09:57;16.90;99.90
23703;DHT22;12030;50.376;8.762;2022-07-29T02:12:24;17.00;99.90
23703;DHT22;12030;50.376;8.762;2022-07-29T02:14:53;17.10;99.90
23703;DHT22;12030;50.376;8.762;2022-07-29T02:17:26;17.10;99.90
23703;DHT22;12030;50.376;8.762;2022-07-29T02:19:56;17.00;99.90
23703;DHT22;12030;50.376;8.762;2022-07-29T02:22:23;16.90;99.90
23703;DHT22;12030;50.376;8.762;2022-07-29T02:24:50;16.90;99.90
23703;DHT22;12030;50.376;8.762;2022-07-29T02:27:17;16.80;99.90
23703;DHT22;12030;50.376;8.762;2022-07-29T02:29:46;16.80;99.90
23703;DHT22;12030;50.376;8.762;2022-07-29T02:32:13;16.80;99.90
23703;DHT22;12030;50.376;8.762;2022-07-29T02:34:41;16.80;99.90
23703;DHT22;12030;50.376;8.762;2022-07-29T02:37:09;16.80;99.90
23703;DHT22;12030;50.376;8.762;2022-07-29T02:39:35;16.70;99.90
23703;DHT22;12030;50.376;8.762;2022-07-29T02:42:05;16.80;99.90
23703;DHT22;12030;50.376;8.762;2022-07-29T02:44:32;16.70;99.90
23703;DHT22;12030;50.376;8.762;2022-07-29T02:47:15;16.70;99.90
23703;DHT22;12030;50.376;8.762;2022-07-29T02:52:47;16.60;99.90
23703;DHT22;12030;50.376;8.762;2022-07-29T02:55:19;16.50;99.90
23703;DHT22;12030;50.376;8.762;2022-07-29T02:57:51;16.40;99.90
23703;DHT22;12030;50.376;8.762;2022-07-29T03:00:18;16.50;99.90
23703;DHT22;12030;50.376;8.762;2022-07-29T03:02:50;16.60;99.90
23703;DHT22;12030;50.376;8.762;2022-07-29T03:05:19;16.50;99.90
23703;DHT22;12030;50.376;8.762;2022-07-29T03:07:49;16.50;99.90
23703;DHT22;12030;50.376;8.762;2022-07-29T03:10:16;16.50;99.90
23703;DHT22;12030;50.376;8.762;2022-07-29T03:12:42;16.60;99.90
23703;DHT22;12030;50.376;8.762;2022-07-29T03:15:09;16.60;99.90
23703;DHT22;12030;50.376;8.762;2022-07-29T03:17:35;16.50;99.90
23703;DHT22;12030;50.376;8.762;2022-07-29T03:20:01;16.50;99.90
23703;DHT22;12030;50.376;8.762;2022-07-29T03:22:28;16.50;99.90
23703;DHT22;12030;50.376;8.762;2022-07-29T03:24:53;16.50;99.90
23703;DHT22;12030;50.376;8.762;2022-07-29T03:27:19;16.60;99.90
23703;DHT22;12030;50.376;8.762;2022-07-29T03:29:45;16.60;99.90
23703;DHT22;12030;50.376;8.762;2022-07-29T03:32:10;16.50;99.90
23703;DHT22;12030;50.376;8.762;2022-07-29T03:34:37;16.50;99.90
23703;DHT22;12030;50.376;8.762;2022-07-29T03:37:04;16.60;99.90
23703;DHT22;12030;50.376;8.762;2022-07-29T03:39:34;16.50;99.90
23703;DHT22;12030;50.376;8.762;2022-07-29T03:42:00;16.50;99.90
23703;DHT22;12030;50.376;8.762;2022-07-29T03:44:27;16.50;99.90
23703;DHT22;12030;50.376;8.762;2022-07-29T03:46:55;16.50;99.90
23703;DHT22;12030;50.376;8.762;2022-07-29T03:49:23;16.40;99.90
23703;DHT22;12030;50.376;8.762;2022-07-29T03:51:50;16.30;99.90
23703;DHT22;12030;50.376;8.762;2022-07-29T03:54:15;16.30;99.90
23703;DHT22;12030;50.376;8.762;2022-07-29T03:56:43;16.30;99.90
23703;DHT22;12030;50.376;8.762;2022-07-29T03:59:11;16.30;99.90
23703;DHT22;12030;50.376;8.762;2022-07-29T04:01:38;16.30;99.90
23703;DHT22;12030;50.376;8.762;2022-07-29T04:04:04;16.30;99.90
23703;DHT22;12030;50.376;8.762;2022-07-29T04:06:38;16.30;99.90
23703;DHT22;12030;50.376;8.762;2022-07-29T04:09:04;16.30;99.90
23703;DHT22;12030;50.376;8.762;2022-07-29T04:11:29;16.20;99.90
23703;DHT22;12030;50.376;8.762;2022-07-29T04:13:55;16.30;99.90
23703;DHT22;12030;50.376;8.762;2022-07-29T04:16:20;16.30;99.90
23703;DHT22;12030;50.376;8.762;2022-07-29T04:18:46;16.20;99.90
23703;DHT22;12030;50.376;8.762;2022-07-29T04:21:11;16.20;99.90
23703;DHT22;12030;50.376;8.762;2022-07-29T04:23:37;16.20;99.90
23703;DHT22;12030;50.376;8.762;2022-07-29T04:26:02;16.20;99.90
23703;DHT22;12030;50.376;8.762;2022-07-29T04:28:28;16.30;99.90
23703;DHT22;12030;50.376;8.762;2022-07-29T04:30:53;16.40;99.90
23703;DHT22;12030;50.376;8.762;2022-07-29T04:33:19;16.30;99.90
23703;DHT22;12030;50.376;8.762;2022-07-29T04:35:44;16.40;99.90
23703;DHT22;12030;50.376;8.762;2022-07-29T04:38:10;16.40;99.90
23703;DHT22;12030;50.376;8.762;2022-07-29T04:40:35;16.40;99.90
23703;DHT22;12030;50.376;8.762;2022-07-29T04:43:01;16.30;99.90
23703;DHT22;12030;50.376;8.762;2022-07-29T04:45:27;16.20;99.90
23703;DHT22;12030;50.376;8.762;2022-07-29T04:47:53;16.20;99.90
23703;DHT22;12030;50.376;8.762;2022-07-29T04:50:19;16.20;99.90
23703;DHT22;12030;50.376;8.762;2022-07-29T04:52:44;16.10;99.90
23703;DHT22;12030;50.376;8.762;2022-07-29T04:55:10;16.00;99.90
23703;DHT22;12030;50.376;8.762;2022-07-29T04:57:35;16.00;99.90
23703;DHT22;12030;50.376;8.762;2022-07-29T05:00:02;16.00;99.90
23703;DHT22;12030;50.376;8.762;2022-07-29T05:02:28;16.00;99.90
23703;DHT22;12030;50.376;8.762;2022-07-29T05:04:53;16.10;99.90
23703;DHT22;12030;50.376;8.762;2022-07-29T05:07:19;16.10;99.90
23703;DHT22;12030;50.376;8.762;2022-07-29T05:09:44;16.00;99.90
23703;DHT22;12030;50.376;8.762;2022-07-29T05:12:10;16.00;99.90
23703;DHT22;12030;50.376;8.762;2022-07-29T05:14:36;15.90;99.90
23703;DHT22;12030;50.376;8.762;2022-07-29T05:17:01;15.90;99.90
23703;DHT22;12030;50.376;8.762;2022-07-29T05:19:27;15.80;99.90
23703;DHT22;12030;50.376;8.762;2022-07-29T05:21:52;15.90;99.90
23703;DHT22;12030;50.376;8.762;2022-07-29T05:24:18;15.80;99.90
23703;DHT22;12030;50.376;8.762;2022-07-29T05:26:43;15.80;99.90
23703;DHT22;12030;50.376;8.762;2022-07-29T05:29:09;15.80;99.90
23703;DHT22;12030;50.376;8.762;2022-07-29T05:31:34;15.80;99.90
23703;DHT22;12030;50.376;8.762;2022-07-29T05:34:00;15.80;99.90
23703;DHT22;12030;50.376;8.762;2022-07-29T05:36:26;15.80;99.90
23703;DHT22;12030;50.376;8.762;2022-07-29T05:38:51;15.80;99.90
23703;DHT22;12030;50.376;8.762;2022-07-29T05:41:18;15.80;99.90
23703;DHT22;12030;50.376;8.762;2022-07-29T05:43:43;15.80;99.90
23703;DHT22;12030;50.376;8.762;2022-07-29T05:46:09;15.90;99.90
23703;DHT22;12030;50.376;8.762;2022-07-29T05:48:35;16.00;99.90
23703;DHT22;12030;50.376;8.762;2022-07-29T05:51:01;16.10;99.90
23703;DHT22;12030;50.376;8.762;2022-07-29T05:53:26;16.20;99.90
23703;DHT22;12030;50.376;8.762;2022-07-29T05:55:52;16.20;99.90
23703;DHT22;12030;50.376;8.762;2022-07-29T05:58:18;16.20;99.90
23703;DHT22;12030;50.376;8.762;2022-07-29T06:00:44;16.30;99.90
23703;DHT22;12030;50.376;8.762;2022-07-29T06:03:09;16.20;99.90
23703;DHT22;12030;50.376;8.762;2022-07-29T06:05:35;16.20;99.90
23703;DHT22;12030;50.376;8.762;2022-07-29T06:08:00;16.20;99.90
23703;DHT22;12030;50.376;8.762;2022-07-29T06:10:26;16.40;99.90
23703;DHT22;12030;50.376;8.762;2022-07-29T06:12:52;16.40;99.90
23703;DHT22;12030;50.376;8.762;2022-07-29T06:15:17;16.60;99.90
23703;DHT22;12030;50.376;8.762;2022-07-29T06:17:43;16.70;99.90
23703;DHT22;12030;50.376;8.762;2022-07-29T06:20:09;16.80;99.90
23703;DHT22;12030;50.376;8.762;2022-07-29T06:22:35;16.80;99.90
23703;DHT22;12030;50.376;8.762;2022-07-29T06:25:01;16.90;99.90
23703;DHT22;12030;50.376;8.762;2022-07-29T06:27:27;17.00;99.90
23703;DHT22;12030;50.376;8.762;2022-07-29T06:29:52;17.00;99.90
23703;DHT22;12030;50.376;8.762;2022-07-29T06:32:18;17.00;99.90
23703;DHT22;12030;50.376;8.762;2022-07-29T06:34:44;17.10;99.90
23703;DHT22;12030;50.376;8.762;2022-07-29T06:37:09;17.20;99.90
23703;DHT22;12030;50.376;8.762;2022-07-29T06:39:36;17.30;99.90
23703;DHT22;12030;50.376;8.762;2022-07-29T06:42:03;17.40;99.90
23703;DHT22;12030;50.376;8.762;2022-07-29T06:44:28;17.40;99.90
23703;DHT22;12030;50.376;8.762;2022-07-29T06:46:55;17.50;99.90
23703;DHT22;12030;50.376;8.762;2022-07-29T06:49:21;17.70;99.90
23703;DHT22;12030;50.376;8.762;2022-07-29T06:51:46;17.70;99.90
23703;DHT22;12030;50.376;8.762;2022-07-29T06:54:12;17.80;99.90
23703;DHT22;12030;50.376;8.762;2022-07-29T06:56:37;18.00;99.90
23703;DHT22;12030;50.376;8.762;2022-07-29T06:59:04;18.10;99.90
23703;DHT22;12030;50.376;8.762;2022-07-29T07:01:29;18.20;99.90
23703;DHT22;12030;50.376;8.762;2022-07-29T07:03:55;18.30;99.90
23703;DHT22;12030;50.376;8.762;2022-07-29T07:06:21;18.50;99.90
23703;DHT22;12030;50.376;8.762;2022-07-29T07:08:47;18.60;99.90
23703;DHT22;12030;50.376;8.762;2022-07-29T07:11:12;18.70;99.90
23703;DHT22;12030;50.376;8.762;2022-07-29T07:13:38;18.80;99.90
23703;DHT22;12030;50.376;8.762;2022-07-29T07:16:04;18.90;99.90
23703;DHT22;12030;50.376;8.762;2022-07-29T07:18:29;19.00;99.90
23703;DHT22;12030;50.376;8.762;2022-07-29T07:20:56;19.10;99.90
23703;DHT22;12030;50.376;8.762;2022-07-29T07:23:21;19.20;99.90
23703;DHT22;12030;50.376;8.762;2022-07-29T07:25:47;19.30;99.90
23703;DHT22;12030;50.376;8.762;2022-07-29T07:28:12;19.40;99.90
23703;DHT22;12030;50.376;8.762;2022-07-29T07:30:39;19.50;99.90
23703;DHT22;12030;50.376;8.762;2022-07-29T07:33:04;19.50;99.90
23703;DHT22;12030;50.376;8.762;2022-07-29T07:35:30;19.60;99.90
23703;DHT22;12030;50.376;8.762;2022-07-29T07:37:56;19.60;99.90
23703;DHT22;12030;50.376;8.762;2022-07-29T07:40:22;19.80;99.90
23703;DHT22;12030;50.376;8.762;2022-07-29T07:42:47;19.80;99.90
23703;DHT22;12030;50.376;8.762;2022-07-29T07:45:13;19.90;99.90
23703;DHT22;12030;50.376;8.762;2022-07-29T07:47:39;20.00;99.90
23703;DHT22;12030;50.376;8.762;2022-07-29T07:50:07;20.10;99.90
23703;DHT22;12030;50.376;8.762;2022-07-29T07:52:32;20.20;99.90
23703;DHT22;12030;50.376;8.762;2022-07-29T07:54:58;20.30;99.90
23703;DHT22;12030;50.376;8.762;2022-07-29T07:57:24;20.40;99.90
23703;DHT22;12030;50.376;8.762;2022-07-29T07:59:49;20.40;99.90
23703;DHT22;12030;50.376;8.762;2022-07-29T08:02:15;20.40;99.90
23703;DHT22;12030;50.376;8.762;2022-07-29T08:04:40;20.50;99.90
23703;DHT22;12030;50.376;8.762;2022-07-29T08:07:06;20.60;99.90
23703;DHT22;12030;50.376;8.762;2022-07-29T08:09:33;20.70;99.90
23703;DHT22;12030;50.376;8.762;2022-07-29T08:11:59;20.80;99.90
23703;DHT22;12030;50.376;8.762;2022-07-29T08:14:27;20.90;99.90
23703;DHT22;12030;50.376;8.762;2022-07-29T08:16:53;21.00;99.90
23703;DHT22;12030;50.376;8.762;2022-07-29T08:19:19;21.10;99.90
23703;DHT22;12030;50.376;8.762;2022-07-29T08:21:44;21.10;99.90
23703;DHT22;12030;50.376;8.762;2022-07-29T08:24:10;21.30;99.90
23703;DHT22;12030;50.376;8.762;2022-07-29T08:26:54;21.40;99.90
23703;DHT22;12030;50.376;8.762;2022-07-29T08:29:19;21.60;99.90
23703;DHT22;12030;50.376;8.762;2022-07-29T08:31:45;21.80;99.90
23703;DHT22;12030;50.376;8.762;2022-07-29T08:34:11;21.90;99.90
23703;DHT22;12030;50.376;8.762;2022-07-29T08:36:37;22.00;99.90
23703;DHT22;12030;50.376;8.762;2022-07-29T08:39:04;22.10;99.90
23703;DHT22;12030;50.376;8.762;2022-07-29T08:41:29;22.00;99.90
23703;DHT22;12030;50.376;8.762;2022-07-29T08:43:56;22.00;99.90
23703;DHT22;12030;50.376;8.762;2022-07-29T08:46:21;22.20;99.90
23703;DHT22;12030;50.376;8.762;2022-07-29T08:48:47;22.50;99.90
23703;DHT22;12030;50.376;8.762;2022-07-29T08:51:18;22.70;99.90
23703;DHT22;12030;50.376;8.762;2022-07-29T08:53:46;22.90;99.90
23703;DHT22;12030;50.376;8.762;2022-07-29T08:56:14;22.90;99.90
23703;DHT22;12030;50.376;8.762;2022-07-29T08:58:42;23.00;99.90
23703;DHT22;12030;50.376;8.762;2022-07-29T09:01:09;23.00;99.90
23703;DHT22;12030;50.376;8.762;2022-07-29T09:03:37;23.00;99.90
23703;DHT22;12030;50.376;8.762;2022-07-29T09:06:03;23.10;99.90
23703;DHT22;12030;50.376;8.762;2022-07-29T09:08:31;23.20;99.90
23703;DHT22;12030;50.376;8.762;2022-07-29T09:10:57;23.30;99.90
23703;DHT22;12030;50.376;8.762;2022-07-29T09:13:23;23.60;99.90
23703;DHT22;12030;50.376;8.762;2022-07-29T09:15:49;23.70;99.90
23703;DHT22;12030;50.376;8.762;2022-07-29T09:18:37;24.10;99.90
23703;DHT22;12030;50.376;8.762;2022-07-29T09:21:04;24.40;99.90
23703;DHT22;12030;50.376;8.762;2022-07-29T09:24:05;24.60;99.90
23703;DHT22;12030;50.376;8.762;2022-07-29T09:26:33;24.80;99.90
23703;DHT22;12030;50.376;8.762;2022-07-29T09:28:59;25.00;99.90
23703;DHT22;12030;50.376;8.762;2022-07-29T09:31:34;25.20;99.90
23703;DHT22;12030;50.376;8.762;2022-07-29T09:34:00;25.00;98.30
23703;DHT22;12030;50.376;8.762;2022-07-29T09:36:26;25.20;99.50
23703;DHT22;12030;50.376;8.762;2022-07-29T09:39:01;26.90;99.90
23703;DHT22;12030;50.376;8.762;2022-07-29T09:41:29;25.70;98.80
23703;DHT22;12030;50.376;8.762;2022-07-29T09:43:58;26.10;98.30
23703;DHT22;12030;50.376;8.762;2022-07-29T09:46:25;26.30;96.90
23703;DHT22;12030;50.376;8.762;2022-07-29T09:49:12;26.50;97.10
23703;DHT22;12030;50.376;8.762;2022-07-29T09:51:39;26.70;96.10
23703;DHT22;12030;50.376;8.762;2022-07-29T09:54:22;26.60;95.00
23703;DHT22;12030;50.376;8.762;2022-07-29T09:56:49;26.80;97.50
23703;DHT22;12030;50.376;8.762;2022-07-29T09:59:14;27.10;96.60
23703;DHT22;12030;50.376;8.762;2022-07-29T10:01:40;27.20;94.60
23703;DHT22;12030;50.376;8.762;2022-07-29T10:04:06;26.90;93.40
23703;DHT22;12030;50.376;8.762;2022-07-29T10:06:32;26.70;94.00
23703;DHT22;12030;50.376;8.762;2022-07-29T10:09:10;26.50;94.40
23703;DHT22;12030;50.376;8.762;2022-07-29T10:11:36;26.20;94.50
23703;DHT22;12030;50.376;8.762;2022-07-29T10:14:03;26.30;94.30
23703;DHT22;12030;50.376;8.762;2022-07-29T10:16:30;26.50;94.80
23703;DHT22;12030;50.376;8.762;2022-07-29T10:18:58;26.30;93.40
23703;DHT22;12030;50.376;8.762;2022-07-29T10:21:25;26.30;94.50
23703;DHT22;12030;50.376;8.762;2022-07-29T10:23:52;26.50;95.90
23703;DHT22;12030;50.376;8.762;2022-07-29T10:26:19;26.70;93.80
23703;DHT22;12030;50.376;8.762;2022-07-29T10:28:44;26.80;94.10
23703;DHT22;12030;50.376;8.762;2022-07-29T10:31:17;26.90;93.20
23703;DHT22;12030;50.376;8.762;2022-07-29T10:42:06;26.70;92.60
23703;DHT22;12030;50.376;8.762;2022-07-29T10:44:33;26.90;94.20
23703;DHT22;12030;50.376;8.762;2022-07-29T10:46:59;27.10;92.60
23703;DHT22;12030;50.376;8.762;2022-07-29T10:49:26;27.00;92.20
23703;DHT22;12030;50.376;8.762;2022-07-29T10:52:00;27.10;93.40
23703;DHT22;12030;50.376;8.762;2022-07-29T10:59:45;27.30;93.50
23703;DHT22;12030;50.376;8.762;2022-07-29T11:02:44;27.50;93.50
23703;DHT22;12030;50.376;8.762;2022-07-29T11:08:17;27.40;91.60
23703;DHT22;12030;50.376;8.762;2022-07-29T11:10:25;27.40;91.40
23703;DHT22;12030;50.376;8.762;2022-07-29T11:12:51;27.20;91.70
23703;DHT22;12030;50.376;8.762;2022-07-29T11:15:21;27.50;92.80
23703;DHT22;12030;50.376;8.762;2022-07-29T11:23:32;28.20;92.50
23703;DHT22;12030;50.376;8.762;2022-07-29T11:28:54;28.30;90.80
23703;DHT22;12030;50.376;8.762;2022-07-29T11:32:36;28.40;91.90
23703;DHT22;12030;50.376;8.762;2022-07-29T11:34:30;28.60;92.60
23703;DHT22;12030;50.376;8.762;2022-07-29T11:39:36;28.50;91.90
23703;DHT22;12030;50.376;8.762;2022-07-29T11:47:39;28.20;90.70
23703;DHT22;12030;50.376;8.762;2022-07-29T11:50:18;28.60;92.40
23703;DHT22;12030;50.376;8.762;2022-07-29T11:52:51;28.80;91.50
23703;DHT22;12030;50.376;8.762;2022-07-29T11:55:19;29.00;91.70
23703;DHT22;12030;50.376;8.762;2022-07-29T11:57:56;29.10;90.50
23703;DHT22;12030;50.376;8.762;2022-07-29T12:00:36;29.20;90.80
23703;DHT22;12030;50.376;8.762;2022-07-29T12:03:08;29.30;91.00
23703;DHT22;12030;50.376;8.762;2022-07-29T12:05:39;29.30;89.80
23703;DHT22;12030;50.376;8.762;2022-07-29T12:08:17;29.20;87.50
23703;DHT22;12030;50.376;8.762;2022-07-29T12:10:46;29.30;88.50
23703;DHT22;12030;50.376;8.762;2022-07-29T12:13:13;29.30;87.70
23703;DHT22;12030;50.376;8.762;2022-07-29T12:15:40;29.50;88.20
23703;DHT22;12030;50.376;8.762;2022-07-29T12:18:15;29.60;91.30
23703;DHT22;12030;50.376;8.762;2022-07-29T12:20:42;29.80;87.20
23703;DHT22;12030;50.376;8.762;2022-07-29T12:23:08;29.80;85.60
23703;DHT22;12030;50.376;8.762;2022-07-29T12:25:37;29.70;84.90
23703;DHT22;12030;50.376;8.762;2022-07-29T12:28:05;29.70;85.90
23703;DHT22;12030;50.376;8.762;2022-07-29T12:30:43;29.60;86.60
23703;DHT22;12030;50.376;8.762;2022-07-29T12:33:21;29.80;89.50
23703;DHT22;12030;50.376;8.762;2022-07-29T12:35:49;29.80;84.80
23703;DHT22;12030;50.376;8.762;2022-07-29T12:38:15;29.80;84.50
23703;DHT22;12030;50.376;8.762;2022-07-29T12:40:43;29.70;84.20
23703;DHT22;12030;50.376;8.762;2022-07-29T12:45:49;29.60;85.30
23703;DHT22;12030;50.376;8.762;2022-07-29T12:48:17;29.70;83.60
23703;DHT22;12030;50.376;8.762;2022-07-29T12:50:57;29.80;84.50
23703;DHT22;12030;50.376;8.762;2022-07-29T12:53:23;29.80;83.60
23703;DHT22;12030;50.376;8.762;2022-07-29T12:55:50;29.70;83.50
23703;DHT22;12030;50.376;8.762;2022-07-29T13:01:17;29.90;84.70
23703;DHT22;12030;50.376;8.762;2022-07-29T13:03:46;30.00;82.80
23703;DHT22;12030;50.376;8.762;2022-07-29T13:09:03;30.60;83.60
23703;DHT22;12030;50.376;8.762;2022-07-29T13:11:46;29.30;80.20
23703;DHT22;12030;50.376;8.762;2022-07-29T13:14:32;30.70;81.60
23703;DHT22;12030;50.376;8.762;2022-07-29T13:17:04;31.00;81.40
23703;DHT22;12030;50.376;8.762;2022-07-29T13:19:34;31.00;81.10
23703;DHT22;12030;50.376;8.762;2022-07-29T13:22:00;31.40;79.90
23703;DHT22;12030;50.376;8.762;2022-07-29T13:24:26;31.50;77.90
23703;DHT22;12030;50.376;8.762;2022-07-29T13:26:51;31.60;78.20
23703;DHT22;12030;50.376;8.762;2022-07-29T13:29:17;31.80;82.40
23703;DHT22;12030;50.376;8.762;2022-07-29T13:31:43;32.00;79.30
23703;DHT22;12030;50.376;8.762;2022-07-29T13:34:08;32.30;79.20
23703;DHT22;12030;50.376;8.762;2022-07-29T13:36:34;32.50;81.10
23703;DHT22;12030;50.376;8.762;2022-07-29T13:39:00;32.80;83.00
23703;DHT22;12030;50.376;8.762;2022-07-29T13:41:28;33.00;81.10
23703;DHT22;12030;50.376;8.762;2022-07-29T13:43:53;32.70;76.20
23703;DHT22;12030;50.376;8.762;2022-07-29T13:46:19;32.60;76.70
23703;DHT22;12030;50.376;8.762;2022-07-29T13:48:45;31.90;77.80
23703;DHT22;12030;50.376;8.762;2022-07-29T13:51:11;31.40;81.40
23703;DHT22;12030;50.376;8.762;2022-07-29T13:53:36;30.90;83.70
23703;DHT22;12030;50.376;8.762;2022-07-29T13:56:02;30.40;85.60
23703;DHT22;12030;50.376;8.762;2022-07-29T13:58:27;29.90;82.00
23703;DHT22;12030;50.376;8.762;2022-07-29T14:00:53;29.50;83.40
23703;DHT22;12030;50.376;8.762;2022-07-29T14:03:19;29.10;85.30
23703;DHT22;12030;50.376;8.762;2022-07-29T14:05:44;28.90;87.40
23703;DHT22;12030;50.376;8.762;2022-07-29T14:08:10;28.70;88.30
23703;DHT22;12030;50.376;8.762;2022-07-29T14:10:36;28.60;90.30
23703;DHT22;12030;50.376;8.762;2022-07-29T14:13:01;28.50;87.50
23703;DHT22;12030;50.376;8.762;2022-07-29T14:15:27;28.50;91.90
23703;DHT22;12030;50.376;8.762;2022-07-29T14:17:53;28.40;88.50
23703;DHT22;12030;50.376;8.762;2022-07-29T14:20:19;28.30;90.40
23703;DHT22;12030;50.376;8.762;2022-07-29T14:22:44;28.20;85.80
23703;DHT22;12030;50.376;8.762;2022-07-29T14:25:10;28.10;86.80
23703;DHT22;12030;50.376;8.762;2022-07-29T14:27:35;28.10;87.30
23703;DHT22;12030;50.376;8.762;2022-07-29T14:30:01;28.00;87.50
23703;DHT22;12030;50.376;8.762;2022-07-29T14:32:26;27.70;91.50
23703;DHT22;12030;50.376;8.762;2022-07-29T14:34:52;27.50;91.70
23703;DHT22;12030;50.376;8.762;2022-07-29T14:37:17;27.30;92.70
23703;DHT22;12030;50.376;8.762;2022-07-29T14:39:43;27.10;93.40
23703;DHT22;12030;50.376;8.762;2022-07-29T14:42:09;27.00;92.80
23703;DHT22;12030;50.376;8.762;2022-07-29T14:44:35;26.90;93.40
23703;DHT22;12030;50.376;8.762;2022-07-29T14:47:01;26.70;95.00
23703;DHT22;12030;50.376;8.762;2022-07-29T14:49:27;26.70;93.60
23703;DHT22;12030;50.376;8.762;2022-07-29T14:51:52;26.50;93.40
23703;DHT22;12030;50.376;8.762;2022-07-29T14:54:18;26.40;93.60
23703;DHT22;12030;50.376;8.762;2022-07-29T14:56:43;26.30;93.50
23703;DHT22;12030;50.376;8.762;2022-07-29T14:59:09;26.20;94.50
23703;DHT22;12030;50.376;8.762;2022-07-29T15:01:34;26.00;95.40
23703;DHT22;12030;50.376;8.762;2022-07-29T15:04:00;25.90;94.90
23703;DHT22;12030;50.376;8.762;2022-07-29T15:06:26;25.80;96.00
23703;DHT22;12030;50.376;8.762;2022-07-29T15:08:51;25.70;96.60
23703;DHT22;12030;50.376;8.762;2022-07-29T15:11:17;25.40;98.90
23703;DHT22;12030;50.376;8.762;2022-07-29T15:13:42;25.10;99.90
23703;DHT22;12030;50.376;8.762;2022-07-29T15:16:08;24.80;99.90
23703;DHT22;12030;50.376;8.762;2022-07-29T15:18:34;25.90;99.90
23703;DHT22;12030;50.376;8.762;2022-07-29T15:21:00;24.20;99.90
23703;DHT22;12030;50.376;8.762;2022-07-29T15:23:27;23.90;99.90
23703;DHT22;12030;50.376;8.762;2022-07-29T15:25:52;23.80;99.90
23703;DHT22;12030;50.376;8.762;2022-07-29T15:28:18;23.80;99.90
23703;DHT22;12030;50.376;8.762;2022-07-29T15:30:43;23.70;99.90
23703;DHT22;12030;50.376;8.762;2022-07-29T15:33:09;23.60;99.90
23703;DHT22;12030;50.376;8.762;2022-07-29T15:35:36;23.50;99.90
23703;DHT22;12030;50.376;8.762;2022-07-29T15:38:02;23.40;99.90
23703;DHT22;12030;50.376;8.762;2022-07-29T15:40:28;23.30;99.90
23703;DHT22;12030;50.376;8.762;2022-07-29T15:42:54;23.30;99.90
23703;DHT22;12030;50.376;8.762;2022-07-29T15:45:19;23.30;99.90
23703;DHT22;12030;50.376;8.762;2022-07-29T15:47:45;23.30;99.90
23703;DHT22;12030;50.376;8.762;2022-07-29T15:50:10;23.40;99.90
23703;DHT22;12030;50.376;8.762;2022-07-29T15:52:40;23.50;99.90
23703;DHT22;12030;50.376;8.762;2022-07-29T15:55:06;23.50;99.90
23703;DHT22;12030;50.376;8.762;2022-07-29T15:57:32;23.50;99.90
23703;DHT22;12030;50.376;8.762;2022-07-29T15:59:58;23.40;99.90
23703;DHT22;12030;50.376;8.762;2022-07-29T16:02:24;23.50;99.90
23703;DHT22;12030;50.376;8.762;2022-07-29T16:04:49;23.50;99.90
23703;DHT22;12030;50.376;8.762;2022-07-29T16:07:15;23.50;99.90
23703;DHT22;12030;50.376;8.762;2022-07-29T16:09:42;23.50;99.90
23703;DHT22;12030;50.376;8.762;2022-07-29T16:12:07;23.40;99.90
23703;DHT22;12030;50.376;8.762;2022-07-29T16:14:33;23.30;99.90
23703;DHT22;12030;50.376;8.762;2022-07-29T16:16:59;23.30;99.90
23703;DHT22;12030;50.376;8.762;2022-07-29T16:19:28;23.20;99.90
23703;DHT22;12030;50.376;8.762;2022-07-29T16:21:54;23.10;99.90
23703;DHT22;12030;50.376;8.762;2022-07-29T16:24:19;23.10;99.90